createdAt,value
2023-07-17T00:01:37.816Z,81.38
2023-07-17T00:04:10.360Z,81.65
2023-07-17T00:06:43.488Z,81.13
2023-07-17T00:09:18.277Z,82.21
2023-07-17T00:11:51.080Z,82.29
2023-07-17T00:14:25.890Z,82.34
2023-07-17T00:16:59.829Z,82.56
2023-07-17T00:19:32.448Z,81.34
2023-07-17T00:22:04.979Z,82.13
2023-07-17T00:24:39.093Z,81.72
2023-07-17T00:27:12.709Z,80.18
2023-07-17T00:29:45.977Z,80.99
2023-07-17T00:32:19.355Z,82.35
2023-07-17T00:34:52.558Z,82.80
2023-07-17T00:37:26.315Z,82.87
2023-07-17T00:39:59.619Z,82.80
2023-07-17T00:42:34.028Z,83.32
2023-07-17T00:45:08.412Z,83.39
2023-07-17T00:47:43.674Z,82.40
2023-07-17T00:50:18.416Z,81.10
2023-07-17T00:52:51.141Z,81.71
2023-07-17T00:55:25.602Z,82.72
2023-07-17T00:57:59.619Z,83.40
2023-07-17T01:00:34.820Z,83.61
2023-07-17T01:03:12.026Z,83.50
2023-07-17T01:05:46.963Z,83.23
2023-07-17T01:08:21.638Z,83.39
2023-07-17T01:10:54.280Z,83.40
2023-07-17T01:13:29.147Z,83.71
2023-07-17T01:16:02.608Z,83.92
2023-07-17T01:18:36.303Z,84.12
2023-07-17T01:21:10.994Z,84.19
2023-07-17T01:23:47.242Z,84.31
2023-07-17T01:26:21.565Z,82.46
2023-07-17T01:28:54.882Z,82.70
2023-07-17T01:31:27.202Z,83.33
2023-07-17T01:34:00.744Z,83.00
2023-07-17T01:36:35.460Z,83.86
2023-07-17T01:39:09.790Z,84.03
2023-07-17T01:41:42.640Z,84.37
2023-07-17T01:44:16.874Z,83.92
2023-07-17T01:46:50.006Z,82.41
2023-07-17T01:49:23.674Z,83.44
2023-07-17T01:51:57.665Z,84.49
2023-07-17T01:54:30.661Z,82.99
2023-07-17T01:57:04.483Z,82.97
2023-07-17T01:59:37.883Z,84.38
2023-07-17T02:02:12.991Z,84.56
2023-07-17T02:04:46.975Z,84.05
2023-07-17T02:07:20.678Z,82.82
2023-07-17T02:09:53.937Z,82.86
2023-07-17T02:12:26.628Z,83.30
2023-07-17T02:14:58.805Z,84.84
2023-07-17T02:17:32.264Z,85.51
2023-07-17T02:20:11.387Z,85.48
2023-07-17T02:22:43.873Z,85.06
2023-07-17T02:25:18.646Z,84.98
2023-07-17T02:27:51.294Z,85.36
2023-07-17T02:30:25.116Z,85.17
2023-07-17T02:33:00.802Z,85.31
2023-07-17T02:35:33.562Z,85.15
2023-07-17T02:38:08.084Z,84.98
2023-07-17T02:40:44.416Z,84.57
2023-07-17T02:43:17.924Z,84.58
2023-07-17T02:45:51.643Z,84.73
2023-07-17T02:48:24.589Z,84.62
2023-07-17T02:50:57.845Z,85.00
2023-07-17T02:53:33.260Z,85.23
2023-07-17T02:56:06.041Z,85.23
2023-07-17T02:58:42.296Z,85.18
2023-07-17T03:01:16.946Z,85.36
2023-07-17T03:03:50.745Z,85.57
2023-07-17T03:06:23.631Z,84.69
2023-07-17T03:08:55.916Z,84.08
2023-07-17T03:11:29.050Z,84.61
2023-07-17T03:14:03.873Z,85.38
2023-07-17T03:16:38.111Z,85.35
2023-07-17T03:19:12.901Z,84.53
2023-07-17T03:21:46.998Z,84.64
2023-07-17T03:24:20.928Z,83.48
2023-07-17T03:26:53.467Z,83.54
2023-07-17T03:29:26.489Z,84.58
2023-07-17T03:32:00.433Z,85.23
2023-07-17T03:34:34.641Z,85.58
2023-07-17T03:37:10.307Z,85.53
2023-07-17T03:39:43.944Z,85.06
2023-07-17T03:42:19.708Z,84.05
2023-07-17T03:44:53.317Z,83.78
2023-07-17T03:47:28.313Z,83.70
2023-07-17T03:50:02.390Z,83.05
2023-07-17T03:52:39.500Z,83.04
2023-07-17T03:55:16.556Z,83.39
2023-07-17T03:57:52.323Z,83.54
2023-07-17T04:00:27.950Z,83.70
2023-07-17T04:03:01.495Z,83.66
2023-07-17T04:05:39.658Z,83.68
2023-07-17T04:08:13.364Z,83.46
2023-07-17T04:10:46.153Z,83.14
2023-07-17T04:13:19.314Z,83.99
2023-07-17T04:15:52.770Z,83.27
2023-07-17T04:18:25.943Z,83.60
2023-07-17T04:20:59.662Z,83.92
2023-07-17T04:23:33.780Z,83.06
2023-07-17T04:26:08.940Z,83.17
2023-07-17T04:28:42.853Z,83.29
2023-07-17T04:31:16.978Z,83.89
2023-07-17T04:33:51.517Z,84.51
2023-07-17T04:36:25.138Z,84.92
2023-07-17T04:38:59.838Z,84.43
2023-07-17T04:41:33.826Z,83.11
2023-07-17T04:44:08.455Z,83.37
2023-07-17T04:46:42.139Z,83.93
2023-07-17T04:49:15.033Z,84.16
2023-07-17T04:51:51.439Z,84.57
2023-07-17T04:54:25.092Z,83.11
2023-07-17T04:56:59.697Z,82.38
2023-07-17T04:59:33.029Z,82.24
2023-07-17T05:02:08.626Z,82.53
2023-07-17T05:04:41.844Z,82.54
2023-07-17T05:07:15.652Z,82.31
2023-07-17T05:09:50.041Z,81.70
2023-07-17T05:12:25.111Z,81.52
2023-07-17T05:15:00.787Z,81.89
2023-07-17T05:17:39.725Z,82.34
2023-07-17T05:20:14.618Z,81.59
2023-07-17T05:22:48.961Z,81.13
2023-07-17T05:25:22.691Z,81.03
2023-07-17T05:27:56.008Z,81.57
2023-07-17T05:30:28.485Z,81.59
2023-07-17T05:33:02.016Z,81.88
2023-07-17T05:35:37.002Z,81.78
2023-07-17T06:02:03.817Z,84.25
2023-07-17T06:04:33.330Z,84.20
2023-07-17T06:07:04.825Z,83.85
2023-07-17T06:09:35.565Z,84.81
2023-07-17T06:12:06.524Z,84.32
2023-07-17T06:14:36.534Z,84.73
2023-07-17T06:17:07.736Z,85.44
2023-07-17T06:19:37.009Z,86.17
2023-07-17T06:22:07.938Z,86.59
2023-07-17T06:24:36.910Z,86.80
2023-07-17T06:27:08.680Z,87.19
2023-07-17T06:29:37.491Z,87.35
2023-07-17T06:32:09.308Z,87.39
2023-07-17T06:34:42.155Z,87.42
2023-07-17T06:37:10.917Z,87.50
2023-07-17T06:39:42.088Z,87.49
2023-07-17T06:42:11.360Z,87.30
2023-07-17T06:44:40.399Z,86.93
2023-07-17T06:47:20.555Z,86.54
2023-07-17T06:49:55.776Z,86.13
2023-07-17T06:52:25.797Z,86.50
2023-07-17T06:55:03.807Z,86.30
2023-07-17T06:57:34.750Z,86.03
2023-07-17T07:00:08.469Z,85.58
2023-07-17T07:02:39.805Z,85.66
2023-07-17T07:05:12.213Z,86.62
2023-07-17T07:07:43.095Z,87.28
2023-07-17T07:10:13.987Z,87.17
2023-07-17T07:12:44.521Z,86.24
2023-07-17T07:15:13.754Z,86.94
2023-07-17T07:17:46.160Z,86.49
2023-07-17T07:20:16.000Z,84.94
2023-07-17T07:22:46.106Z,84.61
2023-07-17T07:25:15.576Z,85.12
2023-07-17T07:27:45.851Z,85.52
2023-07-17T07:30:16.456Z,85.52
2023-07-17T07:32:46.209Z,85.41
2023-07-17T07:35:16.559Z,85.77
2023-07-17T07:37:48.714Z,86.23
2023-07-17T07:40:17.657Z,85.90
2023-07-17T07:42:48.653Z,85.64
2023-07-17T07:45:18.705Z,85.65
2023-07-17T07:47:49.073Z,85.48
2023-07-17T07:50:18.765Z,85.21
2023-07-17T07:52:54.695Z,85.10
2023-07-17T07:55:27.626Z,85.60
2023-07-17T07:57:57.309Z,84.53
2023-07-17T08:00:26.831Z,85.13
2023-07-17T08:02:56.303Z,84.82
2023-07-17T08:05:26.616Z,84.04
2023-07-17T08:07:56.453Z,84.05
2023-07-17T08:10:27.408Z,83.84
2023-07-17T08:12:59.486Z,84.06
2023-07-17T08:15:30.370Z,84.07
2023-07-17T08:18:00.492Z,84.27
2023-07-17T08:20:31.316Z,84.19
2023-07-17T08:23:00.270Z,83.17
2023-07-17T08:25:32.446Z,82.73
2023-07-17T08:28:02.018Z,83.04
2023-07-17T08:30:30.930Z,83.60
2023-07-17T08:33:00.695Z,83.21
2023-07-17T08:35:30.676Z,82.70
2023-07-17T08:37:59.688Z,82.44
2023-07-17T08:40:29.642Z,82.77
2023-07-17T08:43:01.254Z,82.71
2023-07-17T08:45:32.666Z,81.89
2023-07-17T08:48:03.407Z,81.28
2023-07-17T08:50:33.234Z,80.86
2023-07-17T08:53:04.096Z,80.03
2023-07-17T08:55:35.005Z,79.89
2023-07-17T08:58:04.353Z,79.86
2023-07-17T09:00:35.109Z,80.01
2023-07-17T09:03:04.850Z,79.93
2023-07-17T09:05:35.090Z,80.36
2023-07-17T09:08:05.086Z,80.20
2023-07-17T09:10:37.306Z,80.04
2023-07-17T09:13:06.393Z,80.55
2023-07-17T09:15:36.197Z,79.28
2023-07-17T09:18:07.257Z,79.22
2023-07-17T09:20:37.811Z,79.08
2023-07-17T09:23:07.823Z,78.73
2023-07-17T09:25:37.884Z,77.66
2023-07-17T09:28:07.540Z,77.42
2023-07-17T09:30:37.985Z,77.12
2023-07-17T09:33:07.785Z,76.94
2023-07-17T09:35:38.209Z,77.77
2023-07-17T09:38:11.754Z,78.10
2023-07-17T09:40:41.461Z,77.09
2023-07-17T09:43:10.913Z,76.59
2023-07-17T09:45:41.662Z,76.21
2023-07-17T09:48:14.696Z,75.85
2023-07-17T09:50:47.523Z,74.57
2023-07-17T09:53:17.865Z,74.41
2023-07-17T09:55:51.008Z,74.35
2023-07-17T09:58:22.682Z,73.34
2023-07-17T10:00:55.118Z,72.88
2023-07-17T10:03:26.379Z,72.77
2023-07-17T10:05:58.999Z,72.27
2023-07-17T10:08:29.384Z,72.30
2023-07-17T10:10:58.850Z,71.31
2023-07-17T10:13:29.184Z,71.58
2023-07-17T10:15:58.715Z,70.58
2023-07-17T10:18:31.628Z,70.32
2023-07-17T10:21:02.561Z,69.58
2023-07-17T10:23:32.203Z,69.26
2023-07-17T10:26:20.375Z,69.77
2023-07-17T10:28:53.427Z,69.80
2023-07-17T10:31:24.573Z,69.02
2023-07-17T10:33:58.830Z,68.35
2023-07-17T10:36:43.645Z,68.23
2023-07-17T10:39:18.441Z,68.62
2023-07-17T10:41:50.880Z,67.65
2023-07-17T10:44:23.188Z,67.76
2023-07-17T10:46:52.592Z,67.98
2023-07-17T10:49:21.856Z,69.01
2023-07-17T10:51:52.060Z,70.36
2023-07-17T10:54:22.725Z,70.44
2023-07-17T10:56:52.665Z,70.69
2023-07-17T10:59:22.189Z,71.38
2023-07-17T11:01:51.078Z,71.63
2023-07-17T11:04:19.969Z,71.91
2023-07-17T11:06:49.798Z,72.67
2023-07-17T11:09:19.814Z,73.86
2023-07-17T11:11:51.713Z,73.71
2023-07-17T11:14:23.257Z,74.90
2023-07-17T11:16:56.572Z,75.53
2023-07-17T11:19:25.663Z,75.92
2023-07-17T11:21:57.286Z,75.74
2023-07-17T11:24:26.297Z,75.58
2023-07-17T11:26:55.441Z,75.63
2023-07-17T11:29:24.895Z,75.74
2023-07-17T11:32:00.215Z,75.67
2023-07-17T11:34:29.528Z,76.46
2023-07-17T11:36:58.415Z,77.07
2023-07-17T11:39:34.755Z,77.28
2023-07-17T11:42:14.974Z,78.11
2023-07-17T11:44:44.984Z,78.47
2023-07-17T11:47:18.158Z,78.16
2023-07-17T11:49:53.708Z,77.82
2023-07-17T11:52:24.952Z,78.32
2023-07-17T11:55:00.102Z,80.46
2023-07-17T11:57:29.423Z,80.16
2023-07-17T12:00:07.962Z,80.15
2023-07-17T12:02:47.071Z,80.69
2023-07-17T12:05:18.961Z,80.98
2023-07-17T12:07:49.236Z,81.14
2023-07-17T12:10:19.655Z,81.26
2023-07-17T12:12:48.819Z,80.07
2023-07-17T12:15:19.151Z,81.51
2023-07-17T12:17:48.657Z,82.38
2023-07-17T12:20:21.106Z,82.82
2023-07-17T12:22:53.035Z,82.31
2023-07-17T12:25:23.666Z,81.22
2023-07-17T12:27:54.329Z,82.08
2023-07-17T12:30:24.260Z,82.86
2023-07-17T12:32:53.975Z,83.09
2023-07-17T12:35:24.793Z,83.04
2023-07-17T12:37:54.677Z,82.74
2023-07-17T12:40:30.282Z,82.75
2023-07-17T12:42:58.917Z,81.64
2023-07-17T12:45:28.693Z,82.32
2023-07-17T12:47:59.156Z,83.00
2023-07-17T12:50:28.683Z,82.44
2023-07-17T12:53:02.696Z,83.02
2023-07-17T12:55:31.841Z,83.27
2023-07-17T12:58:01.683Z,83.44
2023-07-17T13:00:31.862Z,83.70
2023-07-17T13:03:02.300Z,83.23
2023-07-17T13:05:31.825Z,83.89
2023-07-17T13:08:01.235Z,83.50
2023-07-17T13:10:31.763Z,83.40
2023-07-17T13:13:02.658Z,83.61
2023-07-17T13:15:32.312Z,83.43
2023-07-17T13:18:01.754Z,83.22
2023-07-17T13:20:32.092Z,82.63
2023-07-17T13:23:01.678Z,82.71
2023-07-17T13:25:31.298Z,83.20
2023-07-17T13:28:01.317Z,82.38
2023-07-17T13:30:31.739Z,81.66
2023-07-17T13:33:01.137Z,81.63
2023-07-17T13:35:29.975Z,81.73
2023-07-17T13:37:58.919Z,82.00
2023-07-17T13:40:30.178Z,81.42
2023-07-17T13:42:58.898Z,81.77
2023-07-17T13:45:28.536Z,81.11
2023-07-17T13:47:58.586Z,81.43
2023-07-17T13:50:27.740Z,81.21
2023-07-17T13:52:57.446Z,81.37
2023-07-17T13:55:27.425Z,81.42
2023-07-17T13:57:57.728Z,82.10
2023-07-17T14:00:29.323Z,81.48
2023-07-17T14:03:01.789Z,80.90
2023-07-17T14:05:31.375Z,80.56
2023-07-17T14:08:05.422Z,81.16
2023-07-17T14:10:37.646Z,80.73
2023-07-17T14:13:07.941Z,80.63
2023-07-17T14:15:37.737Z,80.77
2023-07-17T14:18:06.815Z,80.70
2023-07-17T14:20:41.473Z,80.82
2023-07-17T14:23:11.415Z,80.54
2023-07-17T14:25:40.694Z,80.48
2023-07-17T14:28:12.942Z,80.58
2023-07-17T14:30:46.314Z,80.11
2023-07-17T14:33:15.443Z,80.23
2023-07-17T14:35:46.364Z,80.23
2023-07-17T14:38:14.492Z,80.00
2023-07-17T14:40:43.966Z,80.55
2023-07-17T14:43:16.561Z,80.73
2023-07-17T14:45:46.819Z,80.26
2023-07-17T14:48:16.510Z,79.62
2023-07-17T14:50:46.720Z,79.40
2023-07-17T14:53:16.742Z,79.48
2023-07-17T14:55:45.742Z,79.93
2023-07-17T14:58:15.311Z,80.02
2023-07-17T15:00:46.196Z,80.13
2023-07-17T15:03:14.998Z,80.19
2023-07-17T15:05:49.716Z,80.38
2023-07-17T15:08:22.578Z,80.45
2023-07-17T15:10:58.209Z,80.59
2023-07-17T15:13:28.890Z,80.40
2023-07-17T15:16:01.855Z,79.93
2023-07-17T15:18:34.103Z,80.05
2023-07-17T15:21:07.036Z,79.85
2023-07-17T15:23:35.961Z,79.92
2023-07-17T15:26:08.406Z,79.97
2023-07-17T15:28:38.299Z,79.88
2023-07-17T15:31:09.839Z,79.77
2023-07-17T15:33:38.677Z,79.96
2023-07-17T15:36:08.167Z,80.23
2023-07-17T15:38:42.939Z,80.35
2023-07-17T15:41:15.640Z,80.37
2023-07-17T15:43:46.040Z,80.71
2023-07-17T15:46:15.449Z,80.69
2023-07-17T15:48:48.467Z,81.50
2023-07-17T15:51:19.782Z,81.25
2023-07-17T15:53:49.042Z,81.62
2023-07-17T15:56:19.104Z,81.23
2023-07-17T15:58:48.724Z,81.23
2023-07-17T16:01:17.858Z,81.39
2023-07-17T16:03:47.329Z,81.13
2023-07-17T16:06:17.283Z,80.47
2023-07-17T16:08:47.230Z,80.13
2023-07-17T16:11:17.560Z,80.02
2023-07-17T16:13:48.039Z,79.42
2023-07-17T16:16:17.729Z,79.70
2023-07-17T16:18:52.169Z,79.26
2023-07-17T16:21:21.644Z,79.08
2023-07-17T16:23:53.166Z,78.99
2023-07-17T16:26:23.339Z,78.84
2023-07-17T16:28:53.173Z,78.59
2023-07-17T16:31:22.677Z,78.72
2023-07-17T16:33:52.849Z,78.98
2023-07-17T16:36:25.032Z,78.51
2023-07-17T16:38:53.959Z,78.03
2023-07-17T16:41:24.308Z,77.61
2023-07-17T16:43:55.117Z,77.72
2023-07-17T16:46:24.583Z,77.54
2023-07-17T16:48:53.887Z,77.31
2023-07-17T16:51:22.773Z,77.03
2023-07-17T16:53:53.959Z,77.04
2023-07-17T16:56:23.736Z,77.07
2023-07-17T16:58:52.625Z,77.05
2023-07-17T17:01:21.251Z,77.70
2023-07-17T17:03:50.641Z,77.82
2023-07-17T17:06:20.611Z,77.99
2023-07-17T17:09:09.460Z,78.50
2023-07-17T17:11:39.550Z,78.93
2023-07-17T17:14:09.069Z,79.33
2023-07-17T17:16:38.826Z,79.48
2023-07-17T17:19:08.898Z,79.55
2023-07-17T17:21:37.937Z,79.96
2023-07-17T17:24:07.414Z,80.00
2023-07-17T17:26:38.100Z,79.79
2023-07-17T17:29:07.217Z,80.03
2023-07-17T17:31:37.839Z,80.67
2023-07-17T17:34:06.985Z,81.02
2023-07-17T17:36:37.120Z,81.10
2023-07-17T17:39:07.370Z,80.62
2023-07-17T17:41:36.382Z,81.18
2023-07-17T17:44:05.587Z,81.74
2023-07-17T17:46:38.235Z,81.77
2023-07-17T17:49:07.007Z,82.15
2023-07-17T17:51:36.495Z,82.46
2023-07-17T17:54:07.417Z,82.54
2023-07-17T17:56:36.454Z,81.76
2023-07-17T17:59:06.834Z,82.25
2023-07-17T18:01:37.375Z,82.93
2023-07-17T18:04:06.712Z,83.01
2023-07-17T18:06:36.587Z,83.00
2023-07-17T18:09:07.673Z,83.10
2023-07-17T18:11:39.271Z,82.52
2023-07-17T18:14:11.545Z,82.23
2023-07-17T18:16:40.766Z,82.50
2023-07-17T18:19:12.396Z,81.95
2023-07-17T18:21:41.847Z,81.97
2023-07-17T18:24:11.694Z,82.12
2023-07-17T18:26:42.996Z,81.90
2023-07-17T18:29:14.041Z,81.84
2023-07-17T18:31:45.085Z,81.93
2023-07-17T18:34:15.228Z,81.80
2023-07-17T18:36:45.430Z,81.85
2023-07-17T18:39:14.709Z,81.83
2023-07-17T18:41:44.139Z,81.65
2023-07-17T18:44:14.852Z,81.64
2023-07-17T18:46:45.096Z,81.60
2023-07-17T18:49:15.720Z,81.48
2023-07-17T18:51:46.591Z,81.69
2023-07-17T18:54:19.043Z,81.61
2023-07-17T18:56:49.120Z,81.77
2023-07-17T18:59:19.872Z,81.90
2023-07-17T19:01:55.837Z,82.36
2023-07-17T19:04:28.885Z,82.35
2023-07-17T19:06:59.148Z,82.17
2023-07-17T19:09:27.815Z,82.16
2023-07-17T19:11:59.629Z,82.10
2023-07-17T19:14:30.391Z,82.12
2023-07-17T19:17:00.692Z,82.22
2023-07-17T19:19:33.007Z,82.25
2023-07-17T19:22:04.295Z,82.36
2023-07-17T19:24:33.997Z,82.44
2023-07-17T19:27:02.758Z,82.51
2023-07-17T19:29:32.838Z,82.32
2023-07-17T19:32:02.140Z,82.53
2023-07-17T19:34:32.052Z,82.66
2023-07-17T19:37:02.857Z,82.79
2023-07-17T19:39:32.979Z,83.06
2023-07-17T19:42:02.165Z,82.43
2023-07-17T19:44:33.667Z,82.56
2023-07-17T19:47:03.313Z,82.82
2023-07-17T19:49:36.180Z,83.26
2023-07-17T19:52:06.294Z,83.21
2023-07-17T19:54:35.506Z,83.20
2023-07-17T19:57:05.543Z,83.42
2023-07-17T19:59:35.759Z,83.52
2023-07-17T20:02:05.329Z,83.49
2023-07-17T20:04:34.413Z,83.93
2023-07-17T20:07:03.555Z,83.84
2023-07-17T20:09:34.579Z,83.92
2023-07-17T20:12:03.492Z,83.75
2023-07-17T20:14:32.200Z,83.62
2023-07-17T20:17:01.826Z,83.79
2023-07-17T20:19:30.905Z,83.89
2023-07-17T20:22:00.231Z,83.74
2023-07-17T20:24:30.258Z,83.92
2023-07-17T20:26:59.516Z,83.65
2023-07-17T20:29:30.122Z,83.67
2023-07-17T20:31:59.476Z,83.84
2023-07-17T20:34:28.649Z,84.25
2023-07-17T20:37:12.818Z,84.41
2023-07-17T20:39:42.233Z,84.40
2023-07-17T20:49:01.620Z,84.41
2023-07-17T20:51:32.436Z,84.39
2023-07-17T20:54:03.222Z,84.24
2023-07-17T20:56:33.917Z,84.61
2023-07-17T20:59:05.850Z,84.47
2023-07-17T21:01:34.878Z,84.37
2023-07-17T21:04:05.288Z,83.50
2023-07-17T21:06:34.501Z,83.63
2023-07-17T21:09:04.688Z,84.19
2023-07-17T21:11:35.035Z,84.68
2023-07-17T21:14:06.574Z,84.25
2023-07-17T21:16:41.568Z,84.62
2023-07-17T21:19:11.285Z,84.25
2023-07-17T21:21:40.820Z,84.70
2023-07-17T21:24:10.690Z,84.97
2023-07-17T21:26:39.642Z,84.94
2023-07-17T21:29:13.627Z,84.90
2023-07-17T21:31:44.719Z,84.86
2023-07-17T21:34:16.144Z,85.00
2023-07-17T21:36:46.737Z,84.91
2023-07-17T21:39:16.801Z,84.87
2023-07-17T21:41:50.501Z,84.79
2023-07-17T21:44:23.361Z,84.23
2023-07-17T21:46:54.114Z,84.69
2023-07-17T21:49:24.733Z,84.76
2023-07-17T21:51:55.302Z,84.56
2023-07-17T21:54:26.992Z,84.69
2023-07-17T21:56:56.374Z,84.80
2023-07-17T21:59:30.229Z,84.63
2023-07-17T22:02:01.915Z,84.60
2023-07-17T22:04:33.015Z,84.27
2023-07-17T22:07:02.947Z,84.37
2023-07-17T22:09:33.038Z,84.70
2023-07-17T22:12:03.229Z,84.68
2023-07-17T22:14:34.808Z,84.56
2023-07-17T22:17:07.719Z,84.56
2023-07-17T22:19:40.123Z,84.79
2023-07-17T22:22:09.080Z,85.03
2023-07-17T22:24:38.989Z,85.07
2023-07-17T22:27:11.737Z,85.14
2023-07-17T22:29:40.953Z,85.32
2023-07-17T22:32:12.218Z,85.11
2023-07-17T22:34:41.112Z,84.52
2023-07-17T22:37:13.042Z,84.51
2023-07-17T22:39:41.974Z,85.17
2023-07-17T22:42:11.174Z,85.49
2023-07-17T22:44:41.593Z,85.75
2023-07-17T22:47:11.637Z,85.70
2023-07-17T22:49:40.591Z,85.73
2023-07-17T22:52:12.935Z,85.79
2023-07-17T22:54:43.493Z,85.77
2023-07-17T22:57:13.359Z,85.51
2023-07-17T22:59:44.212Z,85.49
2023-07-17T23:02:14.649Z,85.49
2023-07-17T23:04:46.064Z,85.75
2023-07-17T23:07:17.589Z,85.76
2023-07-17T23:09:47.613Z,85.76
2023-07-17T23:12:17.128Z,85.82
2023-07-17T23:14:49.713Z,86.01
2023-07-17T23:17:19.314Z,85.86
2023-07-17T23:19:49.206Z,85.80
2023-07-17T23:22:20.439Z,85.62
2023-07-17T23:24:51.207Z,85.64
2023-07-17T23:27:22.245Z,85.66
2023-07-17T23:29:52.940Z,85.58
2023-07-17T23:32:24.749Z,85.80
2023-07-17T23:34:55.742Z,85.87
2023-07-17T23:37:28.888Z,86.03
2023-07-17T23:40:02.657Z,86.03
2023-07-17T23:42:33.804Z,85.96
2023-07-17T23:45:06.690Z,86.03
2023-07-17T23:47:37.371Z,85.97
2023-07-17T23:50:10.178Z,85.66
2023-07-17T23:52:41.422Z,85.22
2023-07-17T23:55:13.493Z,85.14
2023-07-17T23:57:43.868Z,85.63
